Time;durP1;ratioP1;P1;durP2;ratioP2;P2;SDS_P1;SDS_P2;PMS_P1;PMS_P2;Temp;Humidity;BMP_temperature;BMP_pressure;BME280_temperature;BME280_humidity;BME280_pressure;Samples;Min_cycle;Max_cycle;Signal;HPM_P1;HPM_P2
2022/11/08 00:02:19;;;;;;;;;;;12.90;99.90;;;;;;5064858;28;20390;-74
2022/11/08 00:04:44;;;;;;;;;;;12.90;99.90;;;;;;5063006;28;19921;-75
2022/11/08 00:15:26;;;;;;;;;;;12.90;99.90;;;;;;5073477;28;20349;-74
2022/11/08 00:17:51;;;;;;;;;;;12.90;99.90;;;;;;5074021;28;19920;-74
2022/11/08 00:20:17;;;;;;;;;;;12.90;99.90;;;;;;5067523;28;19921;-72
2022/11/08 00:22:42;;;;;;;;;;;12.80;99.90;;;;;;5065087;28;20031;-72
2022/11/08 00:25:09;;;;;;;;;;;12.90;99.90;;;;;;5071011;28;19932;-74
2022/11/08 00:27:34;;;;;;;;;;;12.80;99.90;;;;;;5062731;28;19924;-72
2022/11/08 00:30:00;;;;;;;;;;;12.80;99.90;;;;;;5076147;28;19967;-71
2022/11/08 00:32:26;;;;;;;;;;;12.70;99.90;;;;;;5071505;28;20290;-72
2022/11/08 00:34:52;;;;;;;;;;;12.80;99.90;;;;;;5065938;28;19928;-72
2022/11/08 00:37:18;;;;;;;;;;;12.70;99.90;;;;;;5066481;28;19921;-73
2022/11/08 00:39:44;;;;;;;;;;;12.50;99.90;;;;;;5065949;28;19921;-75
2022/11/08 00:42:09;;;;;;;;;;;12.50;99.90;;;;;;5069620;28;19927;-73
2022/11/08 00:44:35;;;;;;;;;;;12.60;99.90;;;;;;5071505;28;19955;-72
2022/11/08 00:47:00;;;;;;;;;;;12.40;99.90;;;;;;5056341;28;20382;-72
2022/11/08 00:49:26;;;;;;;;;;;12.40;99.90;;;;;;5067952;28;19920;-71
2022/11/08 00:52:02;;;;;;;;;;;12.20;99.90;;;;;;5080793;28;20008;-73
2022/11/08 00:54:27;;;;;;;;;;;12.30;99.90;;;;;;5109525;27;19959;-73
2022/11/08 00:56:52;;;;;;;;;;;12.20;99.90;;;;;;5067326;28;20383;-73
2022/11/08 00:59:18;;;;;;;;;;;12.20;99.90;;;;;;5066870;28;19967;-72
2022/11/08 01:01:44;;;;;;;;;;;12.10;99.90;;;;;;5054396;28;19920;-73
2022/11/08 01:04:10;;;;;;;;;;;12.10;99.90;;;;;;5070746;28;20356;-72
2022/11/08 01:06:37;;;;;;;;;;;12.10;99.90;;;;;;5041882;28;19924;-74
2022/11/08 01:09:03;;;;;;;;;;;12.10;99.90;;;;;;5072332;28;19970;-74
2022/11/08 01:11:29;;;;;;;;;;;12.10;99.90;;;;;;5083084;28;19921;-73
2022/11/08 01:13:55;;;;;;;;;;;12.10;99.90;;;;;;5069506;28;20003;-72
2022/11/08 01:16:22;;;;;;;;;;;12.00;99.90;;;;;;5073390;28;19948;-75
2022/11/08 01:18:48;;;;;;;;;;;12.00;99.90;;;;;;5064308;28;19920;-74
2022/11/08 01:21:14;;;;;;;;;;;12.00;99.90;;;;;;5092101;28;19959;-73
2022/11/08 01:23:41;;;;;;;;;;;12.00;99.90;;;;;;5084134;28;20363;-72
2022/11/08 01:26:08;;;;;;;;;;;12.00;99.90;;;;;;5106001;27;19924;-72
2022/11/08 01:28:34;;;;;;;;;;;12.00;99.90;;;;;;5053016;28;19966;-72
2022/11/08 01:34:22;;;;;;;;;;;12.00;99.90;;;;;;5069078;28;19919;-73
2022/11/08 01:36:47;;;;;;;;;;;12.00;99.90;;;;;;5074833;28;19920;-72
2022/11/08 01:39:13;;;;;;;;;;;11.90;99.90;;;;;;5067758;28;19924;-73
2022/11/08 01:41:38;;;;;;;;;;;11.80;99.90;;;;;;5072555;28;19940;-72
2022/11/08 01:44:04;;;;;;;;;;;11.80;99.90;;;;;;5073218;28;19920;-72
2022/11/08 01:46:33;;;;;;;;;;;11.80;99.90;;;;;;5063032;28;20370;-73
2022/11/08 01:49:11;;;;;;;;;;;11.70;99.90;;;;;;5063263;28;19924;-72
2022/11/08 01:51:43;;;;;;;;;;;11.70;99.90;;;;;;5075197;28;20331;-74
2022/11/08 01:54:10;;;;;;;;;;;11.60;99.90;;;;;;5097402;28;19971;-72
2022/11/08 01:56:35;;;;;;;;;;;11.60;99.90;;;;;;5056312;28;19921;-74
2022/11/08 01:59:02;;;;;;;;;;;11.70;99.90;;;;;;5058897;28;19927;-74
2022/11/08 02:01:28;;;;;;;;;;;11.70;99.90;;;;;;5077656;28;19971;-73
2022/11/08 02:03:54;;;;;;;;;;;11.60;99.90;;;;;;5071676;28;19924;-71
2022/11/08 02:06:19;;;;;;;;;;;11.50;99.90;;;;;;5062610;28;19932;-72
2022/11/08 02:08:45;;;;;;;;;;;11.50;99.90;;;;;;5072484;28;19921;-71
2022/11/08 02:11:11;;;;;;;;;;;11.40;99.90;;;;;;5104336;28;19920;-72
2022/11/08 02:13:50;;;;;;;;;;;11.40;99.90;;;;;;5064820;28;20375;-73
2022/11/08 02:16:16;;;;;;;;;;;11.40;99.90;;;;;;5073448;28;19924;-74
2022/11/08 02:18:44;;;;;;;;;;;11.30;99.90;;;;;;5048118;28;19926;-72
2022/11/08 02:21:19;;;;;;;;;;;11.20;99.90;;;;;;5062238;28;19975;-72
2022/11/08 02:24:06;;;;;;;;;;;11.10;99.90;;;;;;5100063;28;19920;-73
2022/11/08 02:26:33;;;;;;;;;;;11.10;99.90;;;;;;5061534;28;19924;-72
2022/11/08 02:29:18;;;;;;;;;;;11.10;99.90;;;;;;5067105;28;19925;-75
2022/11/08 02:31:44;;;;;;;;;;;11.10;99.90;;;;;;5070855;28;20011;-72
2022/11/08 02:34:10;;;;;;;;;;;11.00;99.90;;;;;;5076047;28;20020;-74
2022/11/08 02:36:35;;;;;;;;;;;11.10;99.90;;;;;;5065659;28;19982;-73
2022/11/08 02:39:01;;;;;;;;;;;11.10;99.90;;;;;;5066957;28;19975;-72
2022/11/08 02:41:26;;;;;;;;;;;11.10;99.90;;;;;;5065467;28;19920;-73
2022/11/08 02:43:52;;;;;;;;;;;10.90;99.90;;;;;;5076054;28;19966;-73
2022/11/08 02:46:17;;;;;;;;;;;11.00;99.90;;;;;;5078887;28;20370;-74
2022/11/08 02:48:43;;;;;;;;;;;10.90;99.90;;;;;;5059877;28;19921;-74
2022/11/08 02:51:08;;;;;;;;;;;11.00;99.90;;;;;;5069336;28;19935;-73
2022/11/08 02:53:34;;;;;;;;;;;10.90;99.90;;;;;;5065947;28;19927;-72
2022/11/08 02:55:59;;;;;;;;;;;10.90;99.90;;;;;;5076052;28;19943;-71
2022/11/08 02:58:26;;;;;;;;;;;10.90;99.90;;;;;;5075662;28;20018;-74
2022/11/08 03:00:52;;;;;;;;;;;10.80;99.90;;;;;;5065499;28;19982;-72
2022/11/08 03:03:17;;;;;;;;;;;10.80;99.90;;;;;;5066059;28;19928;-73
2022/11/08 03:05:43;;;;;;;;;;;10.80;99.90;;;;;;5091299;27;19921;-72
2022/11/08 03:08:08;;;;;;;;;;;10.80;99.90;;;;;;5066908;28;20298;-71
2022/11/08 03:10:34;;;;;;;;;;;10.80;99.90;;;;;;5093591;28;19986;-72
2022/11/08 03:13:00;;;;;;;;;;;10.80;99.90;;;;;;5068358;28;20003;-72
2022/11/08 03:15:26;;;;;;;;;;;10.70;99.90;;;;;;5052621;28;19920;-72
2022/11/08 03:17:52;;;;;;;;;;;10.70;99.90;;;;;;5065335;28;19948;-72
2022/11/08 03:20:17;;;;;;;;;;;10.70;99.90;;;;;;5078081;28;19924;-71
2022/11/08 03:22:44;;;;;;;;;;;10.80;99.90;;;;;;5049780;28;19920;-71
2022/11/08 03:25:09;;;;;;;;;;;10.70;99.90;;;;;;5072913;28;20390;-71
2022/11/08 03:27:34;;;;;;;;;;;10.60;99.90;;;;;;5068415;28;19928;-72
2022/11/08 03:30:00;;;;;;;;;;;10.70;99.90;;;;;;5072017;28;19920;-71
2022/11/08 03:32:26;;;;;;;;;;;10.60;99.90;;;;;;5064299;28;19927;-72
2022/11/08 03:34:52;;;;;;;;;;;10.70;99.90;;;;;;5075413;28;19920;-71
2022/11/08 03:37:17;;;;;;;;;;;10.70;99.90;;;;;;5064360;28;20349;-72
2022/11/08 03:39:43;;;;;;;;;;;10.60;99.90;;;;;;5067310;28;20003;-71
2022/11/08 03:42:08;;;;;;;;;;;10.60;99.90;;;;;;5066162;28;19929;-71
2022/11/08 03:44:34;;;;;;;;;;;10.60;99.90;;;;;;5066847;28;19921;-72
2022/11/08 03:46:59;;;;;;;;;;;10.60;99.90;;;;;;5071132;28;19924;-72
2022/11/08 03:49:25;;;;;;;;;;;10.60;99.90;;;;;;5067416;28;20006;-71
2022/11/08 03:51:51;;;;;;;;;;;10.50;99.90;;;;;;5073967;28;20019;-72
2022/11/08 03:54:17;;;;;;;;;;;10.50;99.90;;;;;;5072557;28;19925;-71
2022/11/08 03:56:42;;;;;;;;;;;10.50;99.90;;;;;;5075263;28;19921;-75
2022/11/08 03:59:09;;;;;;;;;;;10.50;99.90;;;;;;5076776;28;19928;-73
2022/11/08 04:01:35;;;;;;;;;;;10.40;99.90;;;;;;5073329;28;19920;-72
2022/11/08 04:04:00;;;;;;;;;;;10.50;99.90;;;;;;5072496;28;19982;-72
2022/11/08 04:06:26;;;;;;;;;;;10.40;99.90;;;;;;5067389;28;20023;-72
2022/11/08 04:08:51;;;;;;;;;;;10.40;99.90;;;;;;5074534;28;19927;-71
2022/11/08 04:16:45;;;;;;;;;;;10.50;99.90;;;;;;5098744;27;19928;-71
2022/11/08 04:21:55;;;;;;;;;;;10.40;99.90;;;;;;5067580;28;20270;-72
2022/11/08 04:24:21;;;;;;;;;;;10.40;99.90;;;;;;5071811;28;19927;-72
2022/11/08 04:26:46;;;;;;;;;;;10.30;99.90;;;;;;5069265;28;20371;-72
2022/11/08 04:29:12;;;;;;;;;;;10.30;99.90;;;;;;5065866;28;19920;-71
2022/11/08 04:31:38;;;;;;;;;;;10.30;99.90;;;;;;5057967;28;20274;-73
2022/11/08 04:34:03;;;;;;;;;;;10.20;99.90;;;;;;5075439;28;19921;-72
2022/11/08 04:36:29;;;;;;;;;;;10.20;99.90;;;;;;5064034;28;21480;-71
2022/11/08 04:38:54;;;;;;;;;;;10.20;99.90;;;;;;5075190;28;19920;-71
2022/11/08 04:41:21;;;;;;;;;;;10.20;99.90;;;;;;5068598;28;20028;-72
2022/11/08 04:43:47;;;;;;;;;;;10.10;99.90;;;;;;5072352;28;19920;-72
2022/11/08 04:46:13;;;;;;;;;;;10.20;99.90;;;;;;5071691;28;19931;-71
2022/11/08 04:48:39;;;;;;;;;;;10.20;99.90;;;;;;5091074;28;19972;-71
2022/11/08 04:51:05;;;;;;;;;;;10.10;99.90;;;;;;5075381;28;19920;-71
2022/11/08 04:53:30;;;;;;;;;;;10.10;99.90;;;;;;5052858;28;19924;-71
2022/11/08 04:56:04;;;;;;;;;;;10.10;99.90;;;;;;5073917;28;20061;-72
2022/11/08 04:58:37;;;;;;;;;;;10.10;99.90;;;;;;5070742;28;19931;-73
2022/11/08 05:01:03;;;;;;;;;;;10.20;99.90;;;;;;5066898;28;19928;-72
2022/11/08 05:03:29;;;;;;;;;;;10.20;99.90;;;;;;5064353;28;20004;-71
2022/11/08 05:05:54;;;;;;;;;;;10.10;99.90;;;;;;5071685;28;20058;-72
2022/11/08 05:08:20;;;;;;;;;;;10.10;99.90;;;;;;5063607;28;19924;-71
2022/11/08 05:10:45;;;;;;;;;;;10.10;99.90;;;;;;5067883;28;20018;-72
2022/11/08 05:13:11;;;;;;;;;;;10.10;99.90;;;;;;5087352;28;19920;-71
2022/11/08 05:15:36;;;;;;;;;;;10.10;99.90;;;;;;5063840;28;20260;-72
2022/11/08 05:18:02;;;;;;;;;;;10.00;99.90;;;;;;5063002;28;20130;-71
2022/11/08 05:23:24;;;;;;;;;;;10.10;99.90;;;;;;5098265;27;20427;-72
2022/11/08 05:25:51;;;;;;;;;;;10.00;99.90;;;;;;5068565;28;20332;-72
2022/11/08 05:28:16;;;;;;;;;;;10.00;99.90;;;;;;5066356;28;20026;-72
2022/11/08 05:30:41;;;;;;;;;;;10.00;99.90;;;;;;5072781;28;19920;-72
2022/11/08 05:33:07;;;;;;;;;;;10.00;99.90;;;;;;5068400;28;19996;-72
2022/11/08 05:35:33;;;;;;;;;;;10.00;99.90;;;;;;5071864;28;19920;-71
2022/11/08 05:37:58;;;;;;;;;;;9.90;99.90;;;;;;5070310;28;20253;-71
2022/11/08 05:40:24;;;;;;;;;;;9.90;99.90;;;;;;5066166;28;20367;-72
2022/11/08 05:42:51;;;;;;;;;;;9.80;99.90;;;;;;5064490;28;20642;-74
2022/11/08 05:45:21;;;;;;;;;;;9.90;99.90;;;;;;5070346;28;20420;-72
2022/11/08 05:47:46;;;;;;;;;;;9.80;99.90;;;;;;5106978;28;20014;-72
2022/11/08 05:50:12;;;;;;;;;;;9.80;99.90;;;;;;5093534;28;20011;-73
2022/11/08 05:52:38;;;;;;;;;;;9.80;99.90;;;;;;5068178;28;19928;-71
2022/11/08 05:55:04;;;;;;;;;;;9.70;99.90;;;;;;5067815;28;19921;-70
2022/11/08 05:57:29;;;;;;;;;;;9.70;99.90;;;;;;5059371;28;19956;-72
2022/11/08 05:59:55;;;;;;;;;;;9.60;99.90;;;;;;5069623;28;20374;-72
2022/11/08 06:02:21;;;;;;;;;;;9.70;99.90;;;;;;5066801;28;19928;-71
2022/11/08 06:04:46;;;;;;;;;;;9.70;99.90;;;;;;5071445;28;19920;-71
2022/11/08 06:07:19;;;;;;;;;;;9.60;99.90;;;;;;5048848;28;20452;-72
2022/11/08 06:09:45;;;;;;;;;;;9.60;99.90;;;;;;5100689;28;19926;-71
2022/11/08 06:12:11;;;;;;;;;;;9.60;99.90;;;;;;5077545;28;20007;-71
2022/11/08 06:14:36;;;;;;;;;;;9.60;99.90;;;;;;5072351;28;20034;-72
2022/11/08 06:17:02;;;;;;;;;;;9.50;99.90;;;;;;5058612;28;19925;-74
2022/11/08 06:19:27;;;;;;;;;;;9.60;99.90;;;;;;5063757;28;20371;-72
2022/11/08 06:21:53;;;;;;;;;;;9.60;99.90;;;;;;5066737;28;19975;-71
2022/11/08 06:24:20;;;;;;;;;;;9.60;99.90;;;;;;5064926;28;19929;-72
2022/11/08 06:26:46;;;;;;;;;;;9.60;99.90;;;;;;5074419;28;19925;-72
2022/11/08 06:29:11;;;;;;;;;;;9.60;99.90;;;;;;5064281;28;20290;-72
2022/11/08 06:31:37;;;;;;;;;;;9.60;99.90;;;;;;5063974;28;20015;-73
2022/11/08 06:34:02;;;;;;;;;;;9.60;99.90;;;;;;5066961;28;19929;-72
2022/11/08 06:36:27;;;;;;;;;;;9.60;99.90;;;;;;5075442;28;19920;-73
2022/11/08 06:38:54;;;;;;;;;;;9.60;99.90;;;;;;5073988;28;19920;-72
2022/11/08 06:41:19;;;;;;;;;;;9.60;99.90;;;;;;5104010;27;19928;-71
2022/11/08 06:43:45;;;;;;;;;;;9.60;99.90;;;;;;5078945;28;19985;-72
2022/11/08 06:46:10;;;;;;;;;;;9.60;99.90;;;;;;5074816;28;19929;-72
2022/11/08 06:48:36;;;;;;;;;;;9.60;99.90;;;;;;5082520;28;19977;-71
2022/11/08 06:51:02;;;;;;;;;;;9.70;99.90;;;;;;5069779;28;20355;-72
2022/11/08 06:53:28;;;;;;;;;;;9.70;99.90;;;;;;5101593;27;20007;-70
2022/11/08 06:55:53;;;;;;;;;;;9.70;99.90;;;;;;5069672;28;20402;-72
2022/11/08 06:58:19;;;;;;;;;;;9.70;99.90;;;;;;5065135;28;19921;-72
2022/11/08 07:00:44;;;;;;;;;;;9.70;99.90;;;;;;5071102;28;19921;-73
2022/11/08 07:03:10;;;;;;;;;;;9.70;99.90;;;;;;5072296;28;19927;-72
2022/11/08 07:05:35;;;;;;;;;;;9.80;99.90;;;;;;5070361;28;19920;-72
2022/11/08 07:08:01;;;;;;;;;;;9.90;99.90;;;;;;5065684;28;19925;-71
2022/11/08 07:10:28;;;;;;;;;;;9.90;99.90;;;;;;5065378;28;19921;-72
2022/11/08 07:12:58;;;;;;;;;;;9.90;99.90;;;;;;5069774;28;20390;-72
2022/11/08 07:15:23;;;;;;;;;;;9.90;99.90;;;;;;5067175;28;19969;-68
2022/11/08 07:17:49;;;;;;;;;;;9.90;99.90;;;;;;5074012;28;19932;-71
2022/11/08 07:20:14;;;;;;;;;;;9.90;99.90;;;;;;5077754;28;19921;-72
2022/11/08 07:22:39;;;;;;;;;;;10.00;99.90;;;;;;5061005;28;19963;-72
2022/11/08 07:25:05;;;;;;;;;;;9.90;99.90;;;;;;5065957;28;19920;-71
2022/11/08 07:27:31;;;;;;;;;;;10.00;99.90;;;;;;5077747;28;20349;-71
2022/11/08 07:29:56;;;;;;;;;;;10.00;99.90;;;;;;5070996;28;19920;-73
2022/11/08 07:32:22;;;;;;;;;;;10.10;99.90;;;;;;5073564;28;19967;-71
2022/11/08 07:34:47;;;;;;;;;;;10.10;99.90;;;;;;5075585;28;19921;-71
2022/11/08 07:37:16;;;;;;;;;;;10.20;99.90;;;;;;5073235;28;20299;-71
2022/11/08 07:39:41;;;;;;;;;;;10.20;99.90;;;;;;5068135;28;19950;-75
2022/11/08 07:42:07;;;;;;;;;;;10.20;99.90;;;;;;5068249;28;19920;-72
2022/11/08 07:44:32;;;;;;;;;;;10.20;99.90;;;;;;5080397;28;19920;-71
2022/11/08 07:46:57;;;;;;;;;;;10.30;99.90;;;;;;5076400;28;19964;-73
2022/11/08 07:49:23;;;;;;;;;;;10.30;99.90;;;;;;5060754;28;19994;-74
2022/11/08 07:51:48;;;;;;;;;;;10.40;99.90;;;;;;5066340;28;19929;-71
2022/11/08 07:54:14;;;;;;;;;;;10.50;99.90;;;;;;5060380;28;20415;-73
2022/11/08 07:56:39;;;;;;;;;;;10.50;99.90;;;;;;5060015;28;19978;-71
2022/11/08 07:59:05;;;;;;;;;;;10.50;99.90;;;;;;5074008;28;20260;-71
2022/11/08 08:01:30;;;;;;;;;;;10.60;99.90;;;;;;5073814;28;20390;-72
2022/11/08 08:03:56;;;;;;;;;;;10.70;99.90;;;;;;5103383;27;19974;-74
2022/11/08 08:06:23;;;;;;;;;;;10.80;99.90;;;;;;5063161;28;20371;-75
2022/11/08 08:08:49;;;;;;;;;;;10.80;99.90;;;;;;5071336;28;20133;-71
2022/11/08 08:11:14;;;;;;;;;;;10.90;99.90;;;;;;5073891;28;20401;-71
2022/11/08 08:13:40;;;;;;;;;;;10.90;99.90;;;;;;5076888;28;19990;-74
2022/11/08 08:16:06;;;;;;;;;;;11.00;99.90;;;;;;5070878;28;19960;-74
2022/11/08 08:18:31;;;;;;;;;;;11.00;99.90;;;;;;5056991;28;20291;-71
2022/11/08 08:20:56;;;;;;;;;;;11.10;99.90;;;;;;5064360;28;19986;-79
2022/11/08 08:23:22;;;;;;;;;;;11.10;99.90;;;;;;5078328;28;20378;-74
2022/11/08 08:25:47;;;;;;;;;;;11.10;99.90;;;;;;5075646;28;19920;-70
2022/11/08 08:28:13;;;;;;;;;;;11.20;99.90;;;;;;5072421;28;20329;-70
2022/11/08 08:30:39;;;;;;;;;;;11.20;99.90;;;;;;5062059;28;20311;-71
2022/11/08 08:33:12;;;;;;;;;;;11.30;99.90;;;;;;5085190;28;20331;-72
2022/11/08 08:35:38;;;;;;;;;;;11.40;99.90;;;;;;5100324;27;19928;-70
2022/11/08 08:38:04;;;;;;;;;;;11.40;99.90;;;;;;5063428;28;19921;-72
2022/11/08 08:40:30;;;;;;;;;;;11.50;99.90;;;;;;5065202;28;20362;-73
2022/11/08 08:42:57;;;;;;;;;;;11.50;99.90;;;;;;5073850;28;19921;-72
2022/11/08 08:45:22;;;;;;;;;;;11.50;99.90;;;;;;5065199;28;19921;-73
2022/11/08 08:48:20;;;;;;;;;;;11.60;99.90;;;;;;5062870;28;19942;-71
2022/11/08 08:50:45;;;;;;;;;;;11.70;99.90;;;;;;5065137;28;20372;-71
2022/11/08 08:53:11;;;;;;;;;;;11.70;99.90;;;;;;5086118;28;19920;-70
2022/11/08 08:55:37;;;;;;;;;;;11.80;99.90;;;;;;5040020;28;19943;-72
2022/11/08 08:58:03;;;;;;;;;;;11.90;99.90;;;;;;5056254;28;20007;-70
2022/11/08 09:00:29;;;;;;;;;;;12.00;99.90;;;;;;5070503;28;19932;-69
2022/11/08 09:02:54;;;;;;;;;;;12.10;99.90;;;;;;5072578;28;19921;-71
2022/11/08 09:05:20;;;;;;;;;;;12.20;99.90;;;;;;5072506;28;19920;-71
2022/11/08 09:07:45;;;;;;;;;;;12.20;99.90;;;;;;5106432;28;19975;-73
2022/11/08 09:10:11;;;;;;;;;;;12.30;99.90;;;;;;5117199;27;19927;-75
2022/11/08 09:12:37;;;;;;;;;;;12.30;99.90;;;;;;5071524;28;20327;-70
2022/11/08 09:15:03;;;;;;;;;;;12.40;99.90;;;;;;5071267;28;20370;-70
2022/11/08 09:17:28;;;;;;;;;;;12.50;99.90;;;;;;5071959;28;19920;-72
2022/11/08 09:19:54;;;;;;;;;;;12.50;99.90;;;;;;5072591;28;19927;-74
2022/11/08 09:22:20;;;;;;;;;;;12.50;99.90;;;;;;5070630;28;19987;-71
2022/11/08 09:24:45;;;;;;;;;;;12.70;99.90;;;;;;5073008;28;20365;-70
2022/11/08 09:27:11;;;;;;;;;;;12.80;99.90;;;;;;5071877;28;20022;-72
2022/11/08 09:29:36;;;;;;;;;;;12.80;99.90;;;;;;5071541;28;19920;-69
2022/11/08 09:32:02;;;;;;;;;;;12.80;99.90;;;;;;5072336;28;19925;-69
2022/11/08 09:34:27;;;;;;;;;;;12.80;99.90;;;;;;5049799;28;19968;-71
2022/11/08 09:36:53;;;;;;;;;;;12.90;99.90;;;;;;5055634;28;20003;-72
2022/11/08 09:39:18;;;;;;;;;;;12.90;99.90;;;;;;5088567;28;20371;-70
2022/11/08 09:41:50;;;;;;;;;;;12.90;99.90;;;;;;5054279;28;19928;-71
2022/11/08 09:44:22;;;;;;;;;;;12.90;99.90;;;;;;5058038;28;19921;-73
2022/11/08 09:46:47;;;;;;;;;;;13.00;99.90;;;;;;5096051;28;20363;-71
2022/11/08 09:49:19;;;;;;;;;;;13.00;99.90;;;;;;5070766;28;20023;-70
2022/11/08 09:51:45;;;;;;;;;;;13.00;99.90;;;;;;5073889;28;19927;-72
2022/11/08 09:54:13;;;;;;;;;;;13.00;99.90;;;;;;5070838;28;19924;-70
2022/11/08 09:56:39;;;;;;;;;;;13.00;99.90;;;;;;5071690;28;20369;-73
2022/11/08 09:59:05;;;;;;;;;;;13.10;99.90;;;;;;5071378;28;20386;-70
2022/11/08 10:01:34;;;;;;;;;;;13.10;99.90;;;;;;5070601;28;19921;-70
2022/11/08 10:04:11;;;;;;;;;;;13.10;99.90;;;;;;5072908;28;19921;-69
2022/11/08 10:06:41;;;;;;;;;;;13.10;99.90;;;;;;5065525;28;19924;-68
2022/11/08 10:09:18;;;;;;;;;;;13.20;99.90;;;;;;5055716;28;19920;-70
2022/11/08 10:12:03;;;;;;;;;;;13.20;99.90;;;;;;5098589;28;19986;-68
2022/11/08 10:14:28;;;;;;;;;;;13.20;99.90;;;;;;5087224;28;19926;-69
2022/11/08 10:16:54;;;;;;;;;;;13.30;99.90;;;;;;5071664;28;19928;-70
2022/11/08 10:19:46;;;;;;;;;;;13.30;99.90;;;;;;5075178;28;19982;-70
2022/11/08 10:22:17;;;;;;;;;;;13.30;99.90;;;;;;5041008;28;19921;-71
2022/11/08 10:24:54;;;;;;;;;;;13.40;99.90;;;;;;5064114;28;20389;-69
2022/11/08 10:27:29;;;;;;;;;;;13.40;99.90;;;;;;5070945;28;19925;-74
2022/11/08 10:29:57;;;;;;;;;;;13.30;99.90;;;;;;5109435;28;19925;-70
2022/11/08 10:32:22;;;;;;;;;;;13.30;99.90;;;;;;5073386;28;19920;-69
2022/11/08 10:35:02;;;;;;;;;;;13.30;99.90;;;;;;5058865;28;19968;-69
2022/11/08 10:37:28;;;;;;;;;;;13.30;99.90;;;;;;5074789;28;19920;-71
2022/11/08 10:39:58;;;;;;;;;;;13.20;99.90;;;;;;5075255;28;19932;-72
2022/11/08 10:42:36;;;;;;;;;;;13.10;99.90;;;;;;5071188;28;20438;-71
2022/11/08 10:45:01;;;;;;;;;;;13.10;99.90;;;;;;5065675;28;20345;-72
2022/11/08 10:47:29;;;;;;;;;;;13.10;99.90;;;;;;5074590;28;20011;-72
2022/11/08 10:49:54;;;;;;;;;;;13.10;99.90;;;;;;5075083;28;19920;-67
2022/11/08 10:52:33;;;;;;;;;;;13.10;99.90;;;;;;5073668;28;20278;-69
2022/11/08 10:55:00;;;;;;;;;;;13.10;99.90;;;;;;5072146;28;20298;-69
2022/11/08 10:57:31;;;;;;;;;;;13.10;99.90;;;;;;5072467;28;20252;-72
2022/11/08 11:00:16;;;;;;;;;;;13.10;99.90;;;;;;5066861;28;19920;-68
2022/11/08 11:02:41;;;;;;;;;;;13.10;99.90;;;;;;5068484;28;20329;-71
2022/11/08 11:05:27;;;;;;;;;;;13.20;99.90;;;;;;5072838;28;19970;-71
2022/11/08 11:07:53;;;;;;;;;;;13.30;99.90;;;;;;5069591;28;19924;-71
2022/11/08 11:10:35;;;;;;;;;;;13.40;99.90;;;;;;5058312;28;19929;-72
2022/11/08 11:13:02;;;;;;;;;;;13.50;99.90;;;;;;5071113;28;19975;-70
2022/11/08 11:15:37;;;;;;;;;;;13.50;99.90;;;;;;5066821;28;20225;-69
2022/11/08 11:18:04;;;;;;;;;;;13.60;99.90;;;;;;5070295;28;19920;-70
2022/11/08 11:20:30;;;;;;;;;;;13.70;99.90;;;;;;5072444;28;19931;-67
2022/11/08 11:22:57;;;;;;;;;;;13.70;99.90;;;;;;5070563;28;20015;-69
2022/11/08 11:25:23;;;;;;;;;;;13.70;99.90;;;;;;5066261;28;19928;-69
2022/11/08 11:27:53;;;;;;;;;;;13.70;99.90;;;;;;5068120;28;19976;-69
2022/11/08 11:30:20;;;;;;;;;;;13.70;99.90;;;;;;5075685;28;19924;-72
2022/11/08 11:32:53;;;;;;;;;;;13.70;99.90;;;;;;5076573;28;19999;-71
2022/11/08 11:35:32;;;;;;;;;;;13.80;99.90;;;;;;5081385;28;19985;-68
2022/11/08 11:37:58;;;;;;;;;;;13.80;99.90;;;;;;5072846;28;19921;-71
2022/11/08 11:40:36;;;;;;;;;;;13.90;99.90;;;;;;5067276;28;20020;-67
2022/11/08 11:43:15;;;;;;;;;;;13.90;99.90;;;;;;5066167;28;19965;-70
2022/11/08 11:45:49;;;;;;;;;;;13.90;99.90;;;;;;5057694;28;19924;-70
2022/11/08 11:48:26;;;;;;;;;;;13.90;99.90;;;;;;5072899;28;19925;-72
2022/11/08 11:50:52;;;;;;;;;;;13.90;99.90;;;;;;5071285;28;20370;-71
2022/11/08 11:53:20;;;;;;;;;;;14.00;99.90;;;;;;5061200;28;19973;-67
2022/11/08 11:58:32;;;;;;;;;;;14.10;99.90;;;;;;5119785;27;19916;-69
2022/11/08 12:01:16;;;;;;;;;;;14.10;99.90;;;;;;5107685;27;19955;-70
2022/11/08 12:03:48;;;;;;;;;;;14.10;99.90;;;;;;5117081;27;19920;-69
2022/11/08 12:06:22;;;;;;;;;;;14.20;99.90;;;;;;5101134;27;19928;-69
2022/11/08 12:08:57;;;;;;;;;;;14.20;99.90;;;;;;5155940;27;19927;-69
2022/11/08 12:11:35;;;;;;;;;;;14.20;99.90;;;;;;5118785;27;19978;-70
2022/11/08 12:14:10;;;;;;;;;;;14.20;99.90;;;;;;5146675;27;20306;-70
2022/11/08 12:16:54;;;;;;;;;;;14.20;99.90;;;;;;5150148;27;20293;-68
2022/11/08 12:23:00;;;;;;;;;;;14.20;99.90;;;;;;5119204;28;20269;-69
2022/11/08 12:25:38;;;;;;;;;;;14.10;99.90;;;;;;5116096;27;19920;-70
2022/11/08 12:28:12;;;;;;;;;;;14.10;99.90;;;;;;5118384;27;20301;-67
2022/11/08 12:30:41;;;;;;;;;;;14.00;99.90;;;;;;5112936;28;19920;-68
2022/11/08 12:33:17;;;;;;;;;;;14.00;99.90;;;;;;5128366;28;19928;-67
2022/11/08 12:36:02;;;;;;;;;;;14.00;99.90;;;;;;5114459;28;19920;-71
2022/11/08 12:38:35;;;;;;;;;;;14.00;99.90;;;;;;5116742;28;19927;-69
2022/11/08 12:41:06;;;;;;;;;;;14.00;99.90;;;;;;5145367;27;20498;-69
2022/11/08 12:43:52;;;;;;;;;;;14.00;99.90;;;;;;5144189;27;20049;-69
2022/11/08 12:46:18;;;;;;;;;;;14.00;99.90;;;;;;5124511;28;19924;-67
2022/11/08 12:48:47;;;;;;;;;;;14.10;99.90;;;;;;5130170;28;20301;-72
2022/11/08 12:51:16;;;;;;;;;;;14.10;99.90;;;;;;5129868;28;20018;-71
2022/11/08 12:54:00;;;;;;;;;;;14.10;99.90;;;;;;5129931;28;19920;-71
2022/11/08 12:56:35;;;;;;;;;;;14.20;99.90;;;;;;5098113;28;19979;-68
2022/11/08 12:59:02;;;;;;;;;;;14.20;99.90;;;;;;5130120;28;19924;-69
2022/11/08 13:01:28;;;;;;;;;;;14.20;99.90;;;;;;5129587;28;20358;-68
2022/11/08 13:04:05;;;;;;;;;;;14.20;99.90;;;;;;5129762;28;19920;-71
2022/11/08 13:06:44;;;;;;;;;;;14.30;99.90;;;;;;5130075;28;19924;-70
2022/11/08 13:09:21;;;;;;;;;;;14.30;99.90;;;;;;5116484;28;20362;-70
2022/11/08 13:12:19;;;;;;;;;;;14.40;99.90;;;;;;5112069;28;19974;-71
2022/11/08 13:14:44;;;;;;;;;;;14.30;99.90;;;;;;5071257;28;20388;-70
2022/11/08 13:17:16;;;;;;;;;;;14.30;99.90;;;;;;5084973;28;19963;-70
2022/11/08 13:19:45;;;;;;;;;;;14.30;99.90;;;;;;5130083;27;19920;-71
2022/11/08 13:22:29;;;;;;;;;;;14.30;99.90;;;;;;5134821;27;19992;-71
2022/11/08 13:24:56;;;;;;;;;;;14.30;99.90;;;;;;5113104;28;19919;-67
2022/11/08 13:27:23;;;;;;;;;;;14.30;99.90;;;;;;5095729;28;19920;-69
2022/11/08 13:29:50;;;;;;;;;;;14.30;99.90;;;;;;5115253;28;19974;-70
2022/11/08 13:32:39;;;;;;;;;;;14.30;99.90;;;;;;5115029;28;19919;-69
2022/11/08 13:35:20;;;;;;;;;;;14.30;99.90;;;;;;5055392;28;19927;-67
2022/11/08 13:37:57;;;;;;;;;;;14.20;99.90;;;;;;5097797;28;20026;-69
2022/11/08 13:40:57;;;;;;;;;;;14.20;99.90;;;;;;5132423;27;20358;-72
2022/11/08 13:43:23;;;;;;;;;;;14.20;99.90;;;;;;5107848;28;19927;-70
2022/11/08 13:45:48;;;;;;;;;;;14.20;99.90;;;;;;5107698;28;19919;-70
2022/11/08 13:48:23;;;;;;;;;;;14.10;99.90;;;;;;5095177;28;19927;-67
2022/11/08 13:50:49;;;;;;;;;;;14.10;99.90;;;;;;5105405;27;20363;-70
2022/11/08 13:53:15;;;;;;;;;;;14.10;99.90;;;;;;5140325;27;20006;-68
2022/11/08 13:59:22;;;;;;;;;;;14.00;99.90;;;;;;5110137;28;19943;-67
2022/11/08 14:01:48;;;;;;;;;;;14.00;99.90;;;;;;5098695;28;20412;-71
2022/11/08 14:04:22;;;;;;;;;;;14.00;99.90;;;;;;5128304;27;19951;-69
2022/11/08 14:06:48;;;;;;;;;;;13.90;99.90;;;;;;5101461;28;19920;-68
2022/11/08 14:09:24;;;;;;;;;;;13.90;99.90;;;;;;5106812;28;19927;-70
2022/11/08 14:11:56;;;;;;;;;;;13.90;99.90;;;;;;5114864;28;19924;-69
2022/11/08 14:14:32;;;;;;;;;;;13.90;99.90;;;;;;5114598;28;20037;-70
2022/11/08 14:17:17;;;;;;;;;;;14.00;99.90;;;;;;5114917;28;20282;-71
2022/11/08 14:19:44;;;;;;;;;;;14.00;99.90;;;;;;5113952;28;19963;-68
2022/11/08 14:22:12;;;;;;;;;;;14.00;99.90;;;;;;5113750;28;19962;-69
2022/11/08 14:24:38;;;;;;;;;;;14.00;99.90;;;;;;5114837;28;19972;-71
2022/11/08 14:27:03;;;;;;;;;;;13.90;99.90;;;;;;5108246;28;20010;-69
2022/11/08 14:29:29;;;;;;;;;;;14.00;99.90;;;;;;5114534;28;19982;-69
2022/11/08 14:32:24;;;;;;;;;;;13.90;99.90;;;;;;5105056;28;19920;-70
2022/11/08 14:34:49;;;;;;;;;;;13.90;99.90;;;;;;5087283;28;19919;-70
2022/11/08 14:40:37;;;;;;;;;;;13.90;99.90;;;;;;5095106;28;20328;-71
2022/11/08 14:46:28;;;;;;;;;;;13.80;99.90;;;;;;5108925;28;20036;-67
2022/11/08 14:48:55;;;;;;;;;;;13.80;99.90;;;;;;5113785;28;19919;-68
2022/11/08 14:51:21;;;;;;;;;;;13.70;99.90;;;;;;5101713;28;20311;-69
2022/11/08 14:53:48;;;;;;;;;;;13.70;99.90;;;;;;5101975;28;19920;-69
2022/11/08 14:56:17;;;;;;;;;;;13.70;99.90;;;;;;5093983;28;20004;-69
2022/11/08 14:58:43;;;;;;;;;;;13.60;99.90;;;;;;5093370;28;19955;-70
2022/11/08 15:04:31;;;;;;;;;;;13.60;99.90;;;;;;5098674;28;19942;-70
2022/11/08 15:06:57;;;;;;;;;;;13.60;99.90;;;;;;5113680;28;20049;-70
2022/11/08 15:09:31;;;;;;;;;;;13.50;99.90;;;;;;5113633;28;19920;-69